Time;durP1;ratioP1;P1;durP2;ratioP2;P2;SDS_P1;SDS_P2;PMS_P1;PMS_P2;Temp;Humidity;BMP_temperature;BMP_pressure;BME280_temperature;BME280_humidity;BME280_pressure;Samples;Min_cycle;Max_cycle;Signal;HPM_P1;HPM_P2
2023/05/14 00:00:44;;;;;;;;;22.20;20.20;;;;;13.78;57.92;99558.88;5041952;28;8951;-81
2023/05/14 00:03:28;;;;;;;;;21.40;20.00;;;;;13.79;57.85;99561.47;5047155;28;8858;-80
2023/05/14 00:05:57;;;;;;;;;20.20;18.60;;;;;13.76;57.93;99553.63;5045743;28;9024;-79
2023/05/14 00:08:26;;;;;;;;;23.60;21.40;;;;;13.80;57.89;99546.47;5013613;28;8880;-81
2023/05/14 00:10:55;;;;;;;;;19.20;19.20;;;;;13.63;57.96;99542.59;5063358;28;8836;-80
2023/05/14 00:13:25;;;;;;;;;19.20;18.40;;;;;13.55;58.26;99552.56;5049464;28;9705;-80
2023/05/14 00:15:55;;;;;;;;;22.20;19.80;;;;;13.63;57.90;99544.41;5062224;28;8860;-79
2023/05/14 00:18:24;;;;;;;;;17.20;17.20;;;;;13.40;57.92;99540.75;5063259;28;8868;-80
2023/05/14 00:20:54;;;;;;;;;20.20;17.80;;;;;13.22;58.21;99543.97;5033468;28;8955;-82
2023/05/14 00:23:23;;;;;;;;;15.80;15.80;;;;;13.12;57.95;99541.63;5051512;28;8855;-79
2023/05/14 00:25:51;;;;;;;;;12.80;12.80;;;;;13.04;57.84;99541.00;5067249;28;8870;-81
2023/05/14 00:28:20;;;;;;;;;15.20;15.20;;;;;12.87;57.93;99538.03;5064249;28;8864;-80
2023/05/14 00:30:49;;;;;;;;;13.40;13.20;;;;;12.87;58.27;99538.03;5046390;28;8858;-81
2023/05/14 00:33:19;;;;;;;;;16.00;14.80;;;;;12.79;58.25;99532.97;5054600;28;9011;-78
2023/05/14 00:35:48;;;;;;;;;13.40;12.00;;;;;12.64;58.60;99536.06;5047651;28;8860;-78
2023/05/14 00:38:18;;;;;;;;;15.40;13.60;;;;;12.57;58.78;99538.00;5048897;28;8963;-79
2023/05/14 00:40:50;;;;;;;;;8.60;7.80;;;;;12.32;58.93;99522.03;5068970;28;8854;-78
2023/05/14 00:43:20;;;;;;;;;14.40;13.60;;;;;12.45;58.63;99535.72;5067274;28;8842;-80
2023/05/14 00:45:50;;;;;;;;;11.00;10.80;;;;;12.49;58.83;99538.22;5068683;28;9019;-77
2023/05/14 00:48:22;;;;;;;;;9.80;9.80;;;;;12.46;58.26;99530.38;5049349;28;9067;-80
2023/05/14 00:50:51;;;;;;;;;12.60;12.60;;;;;12.56;57.55;99538.91;5068073;28;8884;-79
2023/05/14 00:53:21;;;;;;;;;11.40;11.20;;;;;12.61;57.52;99541.41;5065693;28;8864;-79
2023/05/14 00:55:50;;;;;;;;;11.60;11.60;;;;;12.51;58.27;99536.41;5065369;28;9935;-79
2023/05/14 00:58:20;;;;;;;;;10.80;10.80;;;;;12.45;58.52;99538.38;5065581;28;8864;-79
2023/05/14 01:00:48;;;;;;;;;11.80;10.40;;;;;12.56;58.12;99538.03;5061753;28;8844;-79
2023/05/14 01:03:18;;;;;;;;;11.20;11.20;;;;;12.44;58.16;99537.47;5050423;28;8847;-79
2023/05/14 01:05:59;;;;;;;;;10.20;10.20;;;;;12.32;58.64;99529.94;5045316;28;8934;-79
2023/05/14 01:08:36;;;;;;;;;9.80;9.80;;;;;12.36;58.87;99534.22;5028820;28;8836;-78
2023/05/14 01:11:09;;;;;;;;;12.40;10.00;;;;;12.13;59.54;99527.81;5045502;28;8875;-76
2023/05/14 01:13:51;;;;;;;;;13.40;11.60;;;;;12.05;59.24;99519.28;5029145;28;8856;-78
2023/05/14 01:16:22;;;;;;;;;10.40;10.40;;;;;11.92;59.76;99521.38;5048629;28;8978;-80
2023/05/14 01:18:51;;;;;;;;;12.20;11.40;;;;;11.87;60.13;99519.75;5069442;28;8862;-79
2023/05/14 01:21:34;;;;;;;;;10.60;9.00;;;;;11.86;60.18;99511.00;5052705;28;9113;-79
2023/05/14 01:24:04;;;;;;;;;10.20;10.20;;;;;11.68;60.44;99514.94;5035730;28;8832;-80
2023/05/14 01:26:33;;;;;;;;;13.80;11.60;;;;;11.63;60.40;99511.56;5069246;28;8852;-78
2023/05/14 01:29:11;;;;;;;;;11.20;11.20;;;;;11.65;60.62;99509.75;5052481;28;8882;-78
2023/05/14 01:31:43;;;;;;;;;10.80;10.80;;;;;11.56;60.71;99510.00;5053085;28;9398;-79
2023/05/14 01:34:14;;;;;;;;;12.80;9.40;;;;;11.69;60.64;99507.91;5041925;28;8855;-77
2023/05/14 01:36:45;;;;;;;;;13.60;12.20;;;;;11.59;60.52;99512.53;5047791;28;8865;-77
2023/05/14 01:39:15;;;;;;;;;10.80;10.40;;;;;11.56;60.64;99510.88;5046114;28;8857;-79
2023/05/14 01:41:47;;;;;;;;;10.80;10.60;;;;;11.49;61.54;99497.91;5015845;28;8853;-78
2023/05/14 01:44:17;;;;;;;;;14.60;10.20;;;;;11.41;61.57;99503.34;5037643;28;8876;-78
2023/05/14 01:46:45;;;;;;;;;9.20;7.80;;;;;11.30;61.56;99497.50;5047402;28;8881;-79
2023/05/14 01:49:16;;;;;;;;;8.40;8.40;;;;;11.31;61.74;99494.84;5031938;28;8845;-77
2023/05/14 01:51:47;;;;;;;;;13.60;13.60;;;;;11.33;62.09;99494.78;5032018;28;8865;-78
2023/05/14 01:54:16;;;;;;;;;9.80;9.80;;;;;11.20;62.38;99486.34;5031905;28;8857;-80
2023/05/14 01:56:45;;;;;;;;;8.60;8.60;;;;;11.13;62.40;99475.09;5031956;28;10093;-78
2023/05/14 01:59:14;;;;;;;;;10.80;10.80;;;;;11.20;62.13;99477.56;5048935;28;8892;-78
2023/05/14 02:01:45;;;;;;;;;8.00;8.00;;;;;11.15;62.01;99469.78;5031352;28;8911;-78
2023/05/14 02:04:14;;;;;;;;;12.20;10.00;;;;;11.09;62.30;99470.81;5032429;28;8861;-78
2023/05/14 02:06:43;;;;;;;;;9.60;8.60;;;;;11.03;62.40;99470.06;5043583;28;8838;-79
2023/05/14 02:09:13;;;;;;;;;10.80;10.80;;;;;10.98;62.62;99475.47;5055812;28;8855;-79
2023/05/14 02:11:42;;;;;;;;;9.40;9.40;;;;;11.02;62.33;99471.00;5051891;28;8856;-79
2023/05/14 02:14:11;;;;;;;;;8.00;7.00;;;;;10.88;62.69;99460.78;5051646;28;8860;-78
2023/05/14 02:16:39;;;;;;;;;9.60;9.60;;;;;10.91;62.83;99456.31;5034572;28;8874;-79
2023/05/14 02:19:08;;;;;;;;;10.60;10.60;;;;;10.80;63.23;99442.56;5051448;28;8844;-80
2023/05/14 02:21:37;;;;;;;;;11.60;11.60;;;;;10.90;62.73;99457.22;5051573;28;8866;-78
2023/05/14 02:24:06;;;;;;;;;11.20;8.40;;;;;10.70;63.04;99457.66;5030630;28;8831;-80
2023/05/14 02:26:36;;;;;;;;;14.00;12.00;;;;;10.66;63.20;99450.75;5031677;28;8992;-78
2023/05/14 02:29:05;;;;;;;;;14.00;14.00;;;;;10.74;62.52;99434.81;5059054;28;9592;-79
2023/05/14 02:31:34;;;;;;;;;13.00;12.00;;;;;10.68;62.66;99446.31;5051363;28;8875;-78
2023/05/14 02:34:05;;;;;;;;;11.00;11.00;;;;;10.70;62.59;99435.75;5051468;28;8856;-79
2023/05/14 02:36:34;;;;;;;;;11.80;11.20;;;;;10.75;62.40;99440.03;5035052;28;8860;-81
2023/05/14 02:39:03;;;;;;;;;12.60;12.20;;;;;10.69;62.68;99434.03;5054594;28;8857;-80
2023/05/14 02:41:32;;;;;;;;;12.80;12.80;;;;;10.59;62.64;99436.88;5036520;28;9134;-80
2023/05/14 02:44:02;;;;;;;;;13.00;12.60;;;;;10.67;62.34;99433.19;5049122;28;8938;-79
2023/05/14 02:46:32;;;;;;;;;12.00;11.20;;;;;10.84;61.90;99431.09;5049222;28;8863;-79
2023/05/14 02:49:02;;;;;;;;;15.00;13.40;;;;;10.79;61.86;99436.44;5032377;28;10083;-78
2023/05/14 02:51:31;;;;;;;;;12.20;12.20;;;;;10.89;61.12;99425.72;5048687;28;9015;-78
2023/05/14 02:54:00;;;;;;;;;12.00;12.00;;;;;10.95;60.88;99434.31;5048683;28;8880;-79
2023/05/14 02:56:29;;;;;;;;;11.80;11.60;;;;;11.07;60.80;99425.25;5059525;28;8878;-78
2023/05/14 02:58:58;;;;;;;;;15.20;12.80;;;;;11.07;60.35;99417.38;5051964;28;9584;-78
2023/05/14 03:01:28;;;;;;;;;10.80;10.40;;;;;10.96;60.33;99425.53;5039795;28;8869;-78
2023/05/14 03:03:58;;;;;;;;;10.40;10.40;;;;;10.96;60.32;99420.25;5032435;28;8869;-79
2023/05/14 03:06:26;;;;;;;;;11.40;11.40;;;;;10.99;60.70;99421.94;5032266;28;9203;-78
2023/05/14 03:08:55;;;;;;;;;15.00;14.00;;;;;10.97;60.22;99414.09;5032213;28;8859;-78
2023/05/14 03:11:24;;;;;;;;;14.40;14.40;;;;;10.89;60.70;99412.56;5049363;28;8849;-78
2023/05/14 03:13:53;;;;;;;;;15.60;13.80;;;;;10.70;61.47;99402.44;5048583;28;8877;-77
2023/05/14 03:16:23;;;;;;;;;12.80;12.60;;;;;10.71;61.66;99411.22;5048456;28;8865;-78
2023/05/14 03:18:53;;;;;;;;;14.60;12.80;;;;;10.74;61.69;99412.00;5032180;28;8934;-76
2023/05/14 03:21:22;;;;;;;;;13.20;12.20;;;;;10.66;61.75;99402.56;5060791;28;10142;-78
2023/05/14 03:23:52;;;;;;;;;14.80;14.40;;;;;10.84;61.08;99412.69;5051420;28;8846;-78
2023/05/14 03:26:21;;;;;;;;;18.20;15.80;;;;;10.74;61.31;99408.53;5069642;28;8880;-79
2023/05/14 03:28:53;;;;;;;;;16.00;15.00;;;;;10.65;61.31;99403.44;5067566;28;8908;-78
2023/05/14 03:31:22;;;;;;;;;12.40;12.00;;;;;10.75;61.45;99402.38;5063589;28;8889;-77
2023/05/14 03:33:55;;;;;;;;;14.00;11.00;;;;;10.79;61.51;99404.88;5073001;28;9636;-78
2023/05/14 03:36:24;;;;;;;;;13.20;13.20;;;;;10.77;61.27;99400.56;5049893;28;8990;-79
2023/05/14 03:38:53;;;;;;;;;14.60;14.00;;;;;10.71;61.45;99404.19;5055125;28;8868;-79
2023/05/14 03:41:23;;;;;;;;;13.80;13.80;;;;;10.75;61.64;99395.34;5047064;28;8888;-79
2023/05/14 03:43:52;;;;;;;;;13.00;11.80;;;;;10.71;61.31;99401.56;5045031;28;8871;-80
2023/05/14 03:46:20;;;;;;;;;14.20;14.20;;;;;10.72;61.41;99391.91;5066748;28;8940;-81
2023/05/14 03:48:49;;;;;;;;;12.60;12.60;;;;;10.68;61.57;99391.09;5066875;28;8852;-79
2023/05/14 03:51:20;;;;;;;;;14.00;13.40;;;;;10.75;61.64;99399.75;5050080;28;8867;-78
2023/05/14 03:53:49;;;;;;;;;13.60;12.00;;;;;10.64;61.63;99393.84;5066741;28;8894;-78
2023/05/14 03:56:17;;;;;;;;;15.00;14.00;;;;;10.52;61.53;99403.75;5033400;28;8863;-78
2023/05/14 03:58:47;;;;;;;;;14.00;12.80;;;;;10.56;61.96;99396.66;5049119;28;8901;-81
2023/05/14 04:01:16;;;;;;;;;12.80;12.60;;;;;10.48;61.95;99388.97;5047988;28;8958;-78
2023/05/14 04:03:45;;;;;;;;;14.80;13.80;;;;;10.42;61.83;99396.97;4999788;28;8909;-80
2023/05/14 04:06:15;;;;;;;;;8.00;7.60;;;;;10.48;61.95;99388.06;5048596;28;8889;-79
2023/05/14 04:08:45;;;;;;;;;15.60;15.60;;;;;10.39;62.40;99394.41;5048549;28;8841;-79
2023/05/14 04:11:14;;;;;;;;;15.40;13.40;;;;;10.48;62.21;99396.84;5046415;28;8983;-79
2023/05/14 04:13:43;;;;;;;;;12.20;12.00;;;;;10.52;62.26;99393.25;5046079;28;8841;-78
2023/05/14 04:16:11;;;;;;;;;13.00;12.60;;;;;10.43;62.74;99393.44;5050515;28;8861;-78
2023/05/14 04:18:41;;;;;;;;;12.80;12.60;;;;;10.48;62.56;99399.47;5030147;28;9659;-80
2023/05/14 04:21:09;;;;;;;;;12.20;12.20;;;;;10.53;62.72;99400.22;5046487;28;8979;-78
2023/05/14 04:23:38;;;;;;;;;13.20;11.80;;;;;10.60;62.77;99399.16;5012020;28;8865;-78
2023/05/14 04:26:08;;;;;;;;;18.40;16.40;;;;;10.73;62.44;99398.91;4995474;28;8860;-78
2023/05/14 04:28:37;;;;;;;;;14.00;14.00;;;;;10.68;62.82;99396.38;5046270;28;8841;-79
2023/05/14 04:31:06;;;;;;;;;13.20;13.00;;;;;10.58;62.93;99392.22;5013051;28;8865;-77
2023/05/14 04:33:35;;;;;;;;;12.00;11.80;;;;;10.52;63.38;99382.72;5067291;28;9616;-77
2023/05/14 04:36:05;;;;;;;;;12.00;12.00;;;;;10.46;63.63;99382.00;5067371;28;8862;-78
2023/05/14 04:38:34;;;;;;;;;12.20;12.20;;;;;10.40;64.12;99383.84;5058304;28;8856;-77
2023/05/14 04:41:03;;;;;;;;;12.80;12.60;;;;;10.48;64.02;99378.44;5047323;28;8849;-79
2023/05/14 04:43:34;;;;;;;;;13.00;12.60;;;;;10.55;64.14;99384.41;5048157;28;8876;-78
2023/05/14 04:46:02;;;;;;;;;13.00;11.80;;;;;10.37;65.05;99372.56;5066183;28;8862;-78
2023/05/14 04:48:31;;;;;;;;;12.40;12.40;;;;;10.40;65.32;99377.75;5065749;28;8885;-77
2023/05/14 04:51:00;;;;;;;;;11.60;11.60;;;;;10.40;64.99;99365.47;5030011;28;8854;-80
2023/05/14 04:53:29;;;;;;;;;11.80;11.60;;;;;10.23;65.67;99374.63;5057702;28;9607;-78
2023/05/14 04:55:58;;;;;;;;;14.40;14.40;;;;;10.35;65.63;99377.00;5054034;28;8968;-80
2023/05/14 04:58:28;;;;;;;;;11.80;11.80;;;;;10.30;66.09;99379.72;5014862;28;8819;-80
2023/05/14 05:00:58;;;;;;;;;12.20;12.20;;;;;10.19;66.75;99379.94;5042113;28;8851;-80
2023/05/14 05:03:27;;;;;;;;;12.00;11.40;;;;;10.26;66.26;99385.09;5050725;28;9855;-80
2023/05/14 05:05:56;;;;;;;;;12.60;12.60;;;;;10.27;66.35;99382.41;5042998;28;8867;-80
2023/05/14 05:08:26;;;;;;;;;31.40;27.00;;;;;10.44;65.63;99374.13;5054925;28;8860;-78
2023/05/14 05:10:55;;;;;;;;;16.80;16.00;;;;;10.38;66.09;99376.91;5022933;28;8982;-77
2023/05/14 05:13:24;;;;;;;;;13.00;11.80;;;;;10.38;65.88;99376.91;5042967;28;8862;-78
2023/05/14 05:15:52;;;;;;;;;15.40;13.80;;;;;10.28;66.84;99372.78;5050032;28;8963;-80
2023/05/14 05:18:23;;;;;;;;;15.00;13.80;;;;;10.43;66.32;99358.44;5022997;28;8853;-78
2023/05/14 05:20:52;;;;;;;;;14.00;11.40;;;;;10.45;66.46;99357.47;5065531;28;8860;-80
2023/05/14 05:23:21;;;;;;;;;13.00;12.80;;;;;10.57;65.57;99354.56;5037156;28;9053;-82
2023/05/14 05:25:50;;;;;;;;;12.40;11.80;;;;;10.52;65.64;99342.41;4996929;28;8883;-79
2023/05/14 05:28:19;;;;;;;;;13.40;13.20;;;;;10.30;66.93;99357.84;5044047;28;8832;-77
2023/05/14 05:30:47;;;;;;;;;15.20;15.20;;;;;10.38;66.56;99345.38;5024454;28;8982;-76
2023/05/14 05:33:17;;;;;;;;;11.80;11.80;;;;;10.52;66.18;99353.81;5031732;28;9002;-77
2023/05/14 05:35:47;;;;;;;;;14.40;13.40;;;;;10.42;66.75;99360.19;5044648;28;8902;-77
2023/05/14 05:38:17;;;;;;;;;14.20;12.40;;;;;10.39;66.76;99352.38;5044343;28;8892;-77
2023/05/14 05:40:45;;;;;;;;;14.00;13.60;;;;;10.33;67.35;99358.63;5027372;28;9639;-79
2023/05/14 05:43:15;;;;;;;;;14.20;13.60;;;;;10.27;67.02;99347.41;5043779;28;8861;-78
2023/05/14 05:45:44;;;;;;;;;17.00;16.40;;;;;10.13;67.44;99366.97;5026618;28;8833;-81
2023/05/14 05:48:13;;;;;;;;;14.00;13.00;;;;;10.28;66.95;99354.41;5032489;28;8907;-80
2023/05/14 05:50:43;;;;;;;;;16.60;13.80;;;;;10.28;66.95;99362.28;5007818;28;9070;-79
2023/05/14 05:53:15;;;;;;;;;13.60;13.40;;;;;10.22;66.98;99352.78;5040690;28;8927;-79
2023/05/14 05:55:44;;;;;;;;;14.60;12.80;;;;;10.17;67.21;99337.09;5038618;28;8853;-80
2023/05/14 05:58:16;;;;;;;;;14.60;14.20;;;;;10.15;67.40;99338.91;5042344;28;8868;-78
2023/05/14 06:00:45;;;;;;;;;14.00;13.00;;;;;10.24;67.29;99350.13;5038824;28;8922;-80
2023/05/14 06:03:14;;;;;;;;;14.60;14.60;;;;;10.34;66.87;99327.97;5061297;28;8844;-78
2023/05/14 06:05:43;;;;;;;;;18.00;16.40;;;;;10.09;68.02;99328.53;5079894;28;8896;-78
2023/05/14 06:08:14;;;;;;;;;13.00;13.00;;;;;10.10;67.94;99313.63;5071217;28;8913;-78
2023/05/14 06:10:43;;;;;;;;;14.80;13.40;;;;;10.08;68.18;99329.41;5068469;28;8852;-78
2023/05/14 06:13:15;;;;;;;;;18.60;18.60;;;;;10.08;68.39;99311.03;5051605;28;8836;-77
2023/05/14 06:15:43;;;;;;;;;14.00;12.80;;;;;10.20;67.93;99307.28;5034851;28;8872;-78
2023/05/14 06:18:13;;;;;;;;;14.00;14.00;;;;;10.37;66.96;99297.22;5051541;28;8864;-78
2023/05/14 06:20:41;;;;;;;;;15.00;14.20;;;;;10.41;67.15;99311.16;5070732;28;8850;-78
2023/05/14 06:23:11;;;;;;;;;13.00;12.40;;;;;10.45;66.90;99304.94;5064137;28;8980;-79
2023/05/14 06:25:41;;;;;;;;;14.20;14.20;;;;;10.54;66.50;99317.84;5081207;28;8854;-78
2023/05/14 06:28:10;;;;;;;;;14.20;13.80;;;;;10.56;66.53;99309.94;5053853;28;8843;-79
2023/05/14 06:30:38;;;;;;;;;14.00;13.00;;;;;10.56;66.74;99308.16;5053681;28;8868;-73
2023/05/14 06:33:07;;;;;;;;;14.20;14.20;;;;;10.45;68.17;99311.97;5050332;28;8906;-77
2023/05/14 06:35:36;;;;;;;;;16.20;16.20;;;;;10.66;67.45;99310.56;5065209;28;8982;-81
2023/05/14 06:38:05;;;;;;;;;13.20;13.20;;;;;10.75;67.30;99299.84;5030437;28;8901;-79
2023/05/14 06:40:34;;;;;;;;;15.60;15.40;;;;;10.85;66.90;99297.84;5048008;28;9622;-80
2023/05/14 06:43:05;;;;;;;;;14.40;13.80;;;;;11.12;66.71;99285.72;5058650;28;8860;-78
2023/05/14 06:45:34;;;;;;;;;14.20;13.00;;;;;11.02;66.67;99290.34;5050525;28;8884;-79
2023/05/14 06:48:04;;;;;;;;;14.80;14.60;;;;;10.88;66.17;99272.34;5039665;28;8877;-82
2023/05/14 06:50:33;;;;;;;;;13.00;12.20;;;;;11.07;65.90;99277.09;5042137;28;9720;-80
2023/05/14 06:53:02;;;;;;;;;12.00;12.00;;;;;11.10;65.76;99290.16;5049610;28;9052;-81
2023/05/14 06:55:31;;;;;;;;;15.80;15.80;;;;;11.11;65.77;99281.38;5049199;28;8894;-80
2023/05/14 06:58:00;;;;;;;;;13.40;12.60;;;;;11.09;65.49;99280.56;5033164;28;8890;-80
2023/05/14 07:00:30;;;;;;;;;13.60;13.00;;;;;11.09;65.53;99280.56;5046443;28;9138;-78
2023/05/14 07:02:59;;;;;;;;;16.00;16.00;;;;;10.84;65.75;99261.91;5057872;28;8860;-79
2023/05/14 07:05:28;;;;;;;;;14.80;14.60;;;;;10.82;65.37;99264.59;5040158;28;8877;-78
2023/05/14 07:07:57;;;;;;;;;15.00;14.40;;;;;10.80;65.58;99284.78;5065861;28;8895;-82
2023/05/14 07:10:26;;;;;;;;;15.80;14.80;;;;;10.82;65.32;99268.97;5068719;28;8866;-80
2023/05/14 07:12:55;;;;;;;;;12.60;12.60;;;;;10.96;64.67;99275.59;5051645;28;8876;-81
2023/05/14 07:15:24;;;;;;;;;13.00;12.80;;;;;10.80;64.97;99274.28;5066980;28;8984;-81
2023/05/14 07:17:54;;;;;;;;;15.40;14.80;;;;;10.82;65.09;99275.09;5048898;28;8880;-79
2023/05/14 07:20:23;;;;;;;;;13.80;13.80;;;;;10.93;64.31;99257.28;5036544;28;8954;-80
2023/05/14 07:22:53;;;;;;;;;17.60;16.20;;;;;10.74;64.77;99253.41;5036938;28;8970;-78
2023/05/14 07:25:22;;;;;;;;;14.00;14.00;;;;;10.81;65.07;99264.66;5066678;28;8909;-80
2023/05/14 07:27:51;;;;;;;;;16.60;16.00;;;;;10.73;65.17;99239.41;5068011;28;8842;-80
2023/05/14 07:30:20;;;;;;;;;16.40;15.80;;;;;10.80;65.03;99253.25;5010442;28;9012;-81
2023/05/14 07:32:49;;;;;;;;;15.00;14.40;;;;;10.70;65.23;99257.84;4966794;28;8989;-80
2023/05/14 07:35:20;;;;;;;;;15.40;13.80;;;;;10.69;65.49;99265.78;4940452;28;8899;-79
2023/05/14 07:37:49;;;;;;;;;10.00;9.40;;;;;10.73;65.16;99251.69;4985871;28;8872;-81
2023/05/14 07:40:18;;;;;;;;;14.20;13.60;;;;;10.75;64.91;99252.53;4986512;28;9673;-78
2023/05/14 07:42:47;;;;;;;;;14.80;14.80;;;;;10.67;65.05;99255.31;4971009;28;8865;-83
2023/05/14 07:45:16;;;;;;;;;14.40;14.20;;;;;10.75;64.81;99247.28;4987223;28;8856;-81
2023/05/14 07:47:45;;;;;;;;;15.00;15.00;;;;;10.78;64.76;99239.28;4955221;28;8887;-81
2023/05/14 07:50:15;;;;;;;;;16.20;15.40;;;;;10.83;65.11;99228.66;4983118;28;8982;-81
2023/05/14 07:52:45;;;;;;;;;15.60;13.80;;;;;10.97;64.71;99237.00;4968410;28;9019;-81
2023/05/14 07:55:14;;;;;;;;;17.40;17.20;;;;;11.01;64.97;99225.53;4969143;28;9046;-83
2023/05/14 07:57:43;;;;;;;;;18.80;18.80;;;;;11.03;64.67;99231.59;4937099;28;8880;-78
2023/05/14 08:00:13;;;;;;;;;15.00;15.00;;;;;11.12;64.25;99218.19;4968741;28;8986;-79
2023/05/14 08:02:43;;;;;;;;;14.00;14.00;;;;;11.09;64.87;99218.28;4993863;28;8853;-77
2023/05/14 08:05:12;;;;;;;;;16.20;16.20;;;;;11.18;64.59;99223.28;5026578;28;9713;-77
2023/05/14 08:07:41;;;;;;;;;10.40;9.20;;;;;11.21;64.30;99211.78;5027226;28;8841;-76
2023/05/14 08:10:11;;;;;;;;;15.60;15.60;;;;;11.41;63.69;99213.84;5044593;28;8877;-77
2023/05/14 08:12:41;;;;;;;;;17.00;16.00;;;;;11.45;63.76;99212.84;5061063;28;8850;-76
2023/05/14 08:15:10;;;;;;;;;17.60;16.80;;;;;11.53;63.81;99215.25;5067188;28;8878;-79
2023/05/14 08:17:39;;;;;;;;;14.40;14.40;;;;;11.51;63.14;99225.81;5060689;28;8876;-78
2023/05/14 08:20:10;;;;;;;;;14.20;14.20;;;;;11.62;63.00;99216.75;5061189;28;8874;-79
2023/05/14 08:22:40;;;;;;;;;17.20;15.60;;;;;11.46;64.18;99214.56;5047797;28;8897;-76
2023/05/14 08:25:09;;;;;;;;;18.20;17.00;;;;;11.59;63.56;99180.81;5043581;28;9003;-76
2023/05/14 08:27:39;;;;;;;;;18.00;17.40;;;;;11.51;63.58;99188.97;5062199;28;9816;-76
2023/05/14 08:30:08;;;;;;;;;16.00;14.20;;;;;11.61;64.03;99201.84;5047666;28;8892;-76
2023/05/14 08:32:38;;;;;;;;;18.00;16.80;;;;;11.75;63.27;99189.97;5046733;28;8954;-75
2023/05/14 08:35:07;;;;;;;;;14.40;13.60;;;;;11.68;63.76;99184.97;5051363;28;8858;-72
2023/05/14 08:37:36;;;;;;;;;16.60;16.40;;;;;11.57;65.00;99183.50;5051806;28;8853;-74
2023/05/14 08:40:07;;;;;;;;;15.00;15.00;;;;;11.64;64.70;99173.66;5049263;28;8857;-73
2023/05/14 08:42:40;;;;;;;;;18.80;17.00;;;;;11.84;64.51;99180.09;4989246;28;8869;-75
2023/05/14 08:45:16;;;;;;;;;34.25;31.25;;;;;11.91;64.54;99165.81;5063824;28;8842;-75
2023/05/14 08:47:48;;;;;;;;;34.00;32.50;;;;;11.97;64.03;99170.88;5032303;28;8835;-74
2023/05/14 08:50:18;;;;;;;;;20.00;20.00;;;;;11.90;64.13;99150.91;5068943;28;8896;-75
2023/05/14 08:52:51;;;;;;;;;15.60;15.00;;;;;11.92;64.88;99143.84;5063894;28;8858;-75
2023/05/14 08:55:21;;;;;;;;;18.80;17.80;;;;;11.88;65.02;99152.72;5066502;28;8905;-74
2023/05/14 08:57:51;;;;;;;;;17.00;15.80;;;;;12.23;64.07;99138.38;5063490;28;8866;-74
2023/05/14 09:00:20;;;;;;;;;16.60;15.60;;;;;12.01;64.72;99140.88;5045869;28;8845;-74
2023/05/14 09:02:50;;;;;;;;;15.60;15.60;;;;;12.16;64.53;99155.31;5056935;28;8931;-75
2023/05/14 09:05:20;;;;;;;;;18.80;18.80;;;;;12.23;64.72;99135.75;5046742;28;8869;-75
2023/05/14 09:07:50;;;;;;;;;17.40;17.40;;;;;12.44;63.94;99149.97;5047075;28;8860;-75
2023/05/14 09:10:19;;;;;;;;;15.40;15.40;;;;;12.56;63.02;99147.81;5065518;28;8866;-75
2023/05/14 09:12:49;;;;;;;;;13.00;13.00;;;;;12.78;62.98;99140.84;5053879;28;8846;-75
2023/05/14 09:15:19;;;;;;;;;16.20;15.60;;;;;12.85;63.14;99152.94;5066478;28;8959;-74
2023/05/14 09:17:48;;;;;;;;;14.20;14.20;;;;;12.85;63.03;99150.28;5037530;28;8902;-73
2023/05/14 09:20:17;;;;;;;;;11.20;11.20;;;;;12.90;62.48;99135.16;5047151;28;8881;-75
2023/05/14 09:22:46;;;;;;;;;11.00;11.00;;;;;13.10;62.20;99123.84;5054853;28;9008;-76
2023/05/14 09:25:14;;;;;;;;;14.60;14.60;;;;;13.19;61.30;99116.50;5060465;28;8829;-75
2023/05/14 09:27:48;;;;;;;;;13.40;13.40;;;;;13.23;61.75;99118.97;5050265;28;8842;-76
2023/05/14 09:30:19;;;;;;;;;14.40;12.80;;;;;13.59;61.15;99115.78;5056325;28;8851;-75
2023/05/14 09:32:49;;;;;;;;;12.80;12.20;;;;;13.63;61.17;99121.81;5030926;28;8867;-76
2023/05/14 09:35:20;;;;;;;;;13.40;12.80;;;;;13.87;60.05;99130.56;5051660;28;8964;-76
2023/05/14 09:37:51;;;;;;;;;16.20;15.60;;;;;14.17;59.48;99116.94;5048103;28;9678;-76
2023/05/14 09:40:21;;;;;;;;;12.40;11.40;;;;;14.22;58.88;99136.97;5065663;28;8876;-75
2023/05/14 09:42:51;;;;;;;;;12.60;12.60;;;;;14.35;58.15;99132.03;5048981;28;8849;-75
2023/05/14 09:45:22;;;;;;;;;13.40;13.40;;;;;14.61;57.82;99144.13;5050164;28;8883;-74
2023/05/14 09:47:52;;;;;;;;;12.20;10.00;;;;;14.74;57.45;99136.53;5050813;28;8864;-76
2023/05/14 09:50:25;;;;;;;;;13.20;12.20;;;;;14.72;57.24;99133.09;5032891;28;8861;-76
2023/05/14 09:52:55;;;;;;;;;12.80;12.80;;;;;14.81;57.14;99122.13;5024433;28;8851;-76
2023/05/14 09:55:24;;;;;;;;;15.00;15.00;;;;;14.93;56.37;99091.56;5051311;28;9601;-79
2023/05/14 09:57:53;;;;;;;;;11.80;10.60;;;;;14.88;56.83;99077.69;5070655;28;8950;-76
2023/05/14 10:00:23;;;;;;;;;8.20;8.20;;;;;14.91;56.27;99109.31;5069955;28;8916;-78
2023/05/14 10:02:54;;;;;;;;;14.40;13.00;;;;;15.03;56.14;99095.50;5053302;28;8879;-77
2023/05/14 10:05:23;;;;;;;;;12.00;12.00;;;;;15.09;56.29;99112.03;5064579;28;9039;-76
2023/05/14 10:07:57;;;;;;;;;11.60;10.80;;;;;15.29;55.44;99113.75;5055344;28;8865;-76
2023/05/14 10:10:29;;;;;;;;;10.80;10.80;;;;;15.30;55.42;99105.72;5070818;28;8897;-77
2023/05/14 10:13:03;;;;;;;;;12.40;12.40;;;;;15.50;55.31;99107.41;5069702;28;8842;-76
2023/05/14 10:15:42;;;;;;;;;12.20;12.20;;;;;15.68;55.00;99107.47;5070260;28;8895;-76
2023/05/14 10:18:13;;;;;;;;;11.60;11.60;;;;;15.73;54.77;99089.56;5070120;28;8869;-76
2023/05/14 10:20:42;;;;;;;;;12.40;11.80;;;;;15.69;55.00;99099.47;5069294;28;9628;-76
2023/05/14 10:23:12;;;;;;;;;10.60;10.60;;;;;15.96;54.34;99099.03;5069788;28;8866;-76
2023/05/14 10:25:42;;;;;;;;;13.00;13.00;;;;;15.93;54.27;99089.44;5061165;28;8846;-76
2023/05/14 10:28:11;;;;;;;;;14.20;14.20;;;;;15.85;54.35;99081.03;5068069;28;8870;-78
2023/05/14 10:30:44;;;;;;;;;13.00;13.00;;;;;15.93;54.69;99073.53;5069424;28;9672;-76
2023/05/14 10:33:17;;;;;;;;;12.20;12.20;;;;;15.94;54.78;99079.69;5069826;28;8881;-79
2023/05/14 10:35:56;;;;;;;;;11.60;10.60;;;;;15.87;54.81;99075.63;5068444;28;8846;-76
2023/05/14 10:38:27;;;;;;;;;12.60;12.60;;;;;16.02;54.51;99093.44;5054996;28;8850;-77
2023/05/14 10:41:01;;;;;;;;;11.80;10.40;;;;;15.92;54.51;99085.06;5050047;28;8867;-76
2023/05/14 10:43:31;;;;;;;;;11.00;11.00;;;;;16.02;54.81;99075.72;5048668;28;8825;-76
2023/05/14 10:46:02;;;;;;;;;12.20;11.60;;;;;16.17;54.64;99067.91;5049510;28;8864;-76
2023/05/14 10:48:32;;;;;;;;;12.80;12.20;;;;;16.21;54.78;99066.81;5047960;28;8841;-77
2023/05/14 10:51:01;;;;;;;;;11.60;11.60;;;;;16.43;54.51;99061.22;5049270;28;8995;-76
2023/05/14 10:53:33;;;;;;;;;11.40;11.40;;;;;16.55;53.78;99039.41;5049146;28;8829;-74
2023/05/14 10:56:04;;;;;;;;;8.80;8.80;;;;;16.70;53.63;99047.44;5049221;28;8853;-77
2023/05/14 10:58:36;;;;;;;;;9.80;9.80;;;;;16.71;53.27;99039.41;5048679;28;9609;-75
2023/05/14 11:01:08;;;;;;;;;12.00;8.60;;;;;16.79;53.12;99037.19;5049775;28;9654;-76
2023/05/14 11:03:42;;;;;;;;;8.80;8.80;;;;;16.87;52.82;99055.38;5052527;28;8882;-75
2023/05/14 11:06:13;;;;;;;;;8.20;8.20;;;;;16.93;52.64;99059.50;5048557;28;8869;-74
2023/05/14 11:08:42;;;;;;;;;6.80;6.80;;;;;16.82;52.28;99038.84;5049134;28;8869;-75
2023/05/14 11:11:11;;;;;;;;;9.60;8.00;;;;;16.90;51.94;99044.56;5048936;28;8860;-75
2023/05/14 11:13:41;;;;;;;;;6.00;6.00;;;;;16.91;52.11;99061.34;5048385;28;8881;-75
2023/05/14 11:16:13;;;;;;;;;6.80;6.80;;;;;17.06;51.59;99046.38;5047375;28;8942;-77
2023/05/14 11:19:01;;;;;;;;;7.20;7.00;;;;;17.31;51.66;99049.41;5016962;28;8936;-75
2023/05/14 11:21:31;;;;;;;;;6.80;6.40;;;;;17.35;50.66;99034.16;5049070;28;9023;-77
2023/05/14 11:24:01;;;;;;;;;8.40;8.20;;;;;17.52;50.29;99044.66;5026430;28;9000;-76
2023/05/14 11:26:29;;;;;;;;;6.20;5.60;;;;;17.54;50.19;99018.00;5068681;28;8892;-76
2023/05/14 11:28:58;;;;;;;;;7.60;6.60;;;;;17.38;50.13;99023.31;5066270;28;8866;-77
2023/05/14 11:31:29;;;;;;;;;7.00;6.80;;;;;17.49;50.05;99012.94;5063733;28;8871;-80
2023/05/14 11:33:58;;;;;;;;;4.00;3.80;;;;;17.43;49.89;99018.59;5029965;28;8912;-79
2023/05/14 11:36:27;;;;;;;;;6.00;6.00;;;;;17.40;50.02;99000.22;5047232;28;8841;-80
2023/05/14 11:38:57;;;;;;;;;6.60;5.80;;;;;17.27;50.53;99001.84;5051821;28;8831;-82